Time;durP1;ratioP1;P1;durP2;ratioP2;P2;SDS_P1;SDS_P2;PMS_P1;PMS_P2;Temp;Humidity;BMP_temperature;BMP_pressure;BME280_temperature;BME280_humidity;BME280_pressure;Samples;Min_cycle;Max_cycle;Signal;HPM_P1;HPM_P2
2023/06/20 00:01:33;;;;;;;4.10;3.70;;;23.30;78.10;;;;;;5019835;28;20694;-34
2023/06/20 00:03:59;;;;;;;4.35;3.95;;;23.20;78.10;;;;;;5024631;28;20025;-33
2023/06/20 00:06:25;;;;;;;4.25;3.88;;;23.20;78.20;;;;;;5023909;28;20025;-34
2023/06/20 00:08:50;;;;;;;3.90;3.50;;;23.20;78.40;;;;;;5025065;28;20021;-34
2023/06/20 00:11:19;;;;;;;4.75;3.95;;;23.20;78.60;;;;;;5024202;28;20037;-33
2023/06/20 00:13:44;;;;;;;4.30;3.90;;;23.10;78.80;;;;;;5018580;28;20385;-33
2023/06/20 00:16:13;;;;;;;4.57;4.05;;;23.10;79.00;;;;;;5018745;28;20521;-34
2023/06/20 00:18:38;;;;;;;4.38;3.80;;;23.10;79.10;;;;;;5023156;28;20022;-33
2023/06/20 00:21:04;;;;;;;4.30;3.90;;;23.00;79.20;;;;;;5023962;28;20036;-34
2023/06/20 00:23:30;;;;;;;4.25;3.85;;;23.00;79.30;;;;;;5023064;28;20048;-34
2023/06/20 00:25:58;;;;;;;4.38;3.90;;;23.00;79.40;;;;;;5020110;28;20033;-33
2023/06/20 00:28:23;;;;;;;4.10;3.70;;;23.00;79.40;;;;;;5023461;28;20026;-35
2023/06/20 00:30:49;;;;;;;4.60;4.10;;;23.00;79.50;;;;;;5024327;28;20598;-33
2023/06/20 00:33:18;;;;;;;4.82;3.78;;;22.90;79.50;;;;;;5024349;28;20017;-34
2023/06/20 00:35:44;;;;;;;4.10;3.63;;;22.90;79.60;;;;;;5022334;28;20041;-34
2023/06/20 00:38:09;;;;;;;5.47;3.80;;;22.90;79.60;;;;;;5023157;28;20034;-34
2023/06/20 00:40:35;;;;;;;4.88;3.70;;;22.90;79.60;;;;;;5023943;28;20033;-35
2023/06/20 00:43:00;;;;;;;4.75;4.35;;;22.90;79.50;;;;;;5022692;28;20018;-33
2023/06/20 00:45:33;;;;;;;4.47;4.07;;;22.90;79.60;;;;;;5022581;28;20045;-34
2023/06/20 00:48:07;;;;;;;4.57;4.18;;;22.90;79.60;;;;;;5022223;28;20654;-34
2023/06/20 00:50:34;;;;;;;4.93;4.22;;;22.90;79.50;;;;;;5022345;28;20486;-33
2023/06/20 00:53:05;;;;;;;4.22;3.83;;;22.90;79.50;;;;;;5023608;28;20045;-33
2023/06/20 00:55:33;;;;;;;4.30;3.90;;;22.90;79.50;;;;;;5023415;28;20021;-33
2023/06/20 00:58:00;;;;;;;4.72;3.92;;;22.90;79.40;;;;;;5023588;28;20029;-33
2023/06/20 01:00:27;;;;;;;4.50;4.00;;;22.90;79.40;;;;;;5023844;28;20087;-34
2023/06/20 01:02:57;;;;;;;5.20;4.03;;;23.00;80.00;;;;;;5023446;28;20021;-34
2023/06/20 01:05:28;;;;;;;4.22;3.72;;;23.00;79.40;;;;;;5023546;28;20550;-33
2023/06/20 01:08:17;;;;;;;4.90;3.28;;;23.00;79.30;;;;;;5025883;28;20041;-34
2023/06/20 01:10:54;;;;;;;4.35;3.60;;;23.00;79.20;;;;;;5027155;28;20090;-34
2023/06/20 01:13:29;;;;;;;4.15;3.72;;;23.00;79.20;;;;;;5027385;28;20095;-34
2023/06/20 01:16:20;;;;;;;5.40;3.70;;;23.00;79.20;;;;;;5027826;28;20036;-33
2023/06/20 01:19:00;;;;;;;4.43;4.03;;;23.00;79.20;;;;;;5027735;28;20036;-34
2023/06/20 01:21:31;;;;;;;4.90;4.10;;;23.10;79.30;;;;;;5024041;28;20064;-34
2023/06/20 01:24:09;;;;;;;4.63;3.85;;;23.00;79.30;;;;;;5027823;28;20025;-33
2023/06/20 01:26:47;;;;;;;4.18;3.80;;;23.00;79.40;;;;;;5027960;28;20497;-34
2023/06/20 01:29:35;;;;;;;6.75;4.32;;;23.10;79.40;;;;;;5026892;28;20053;-33
2023/06/20 01:32:06;;;;;;;6.13;4.20;;;23.00;79.40;;;;;;5027666;28;20029;-33
2023/06/20 01:34:40;;;;;;;5.00;4.20;;;23.00;79.40;;;;;;5027548;28;20056;-33
2023/06/20 01:37:16;;;;;;;4.47;4.03;;;23.10;79.50;;;;;;5025881;28;20412;-34
2023/06/20 01:39:49;;;;;;;4.85;4.07;;;23.10;79.60;;;;;;5026837;28;20064;-33
2023/06/20 01:42:21;;;;;;;5.70;4.20;;;23.00;79.50;;;;;;5027362;28;20112;-34
2023/06/20 01:44:47;;;;;;;4.72;3.88;;;23.00;79.60;;;;;;5027035;28;20053;-34
2023/06/20 01:47:15;;;;;;;4.85;4.35;;;23.00;79.60;;;;;;5027198;28;20554;-34
2023/06/20 01:49:42;;;;;;;4.40;4.00;;;23.00;79.60;;;;;;5027448;28;20045;-33
2023/06/20 01:52:10;;;;;;;5.10;4.53;;;23.00;79.70;;;;;;5026677;28;20032;-33
2023/06/20 01:54:37;;;;;;;5.05;4.55;;;23.10;79.80;;;;;;5026711;28;20057;-34
2023/06/20 01:57:04;;;;;;;4.75;4.20;;;23.00;79.80;;;;;;5027044;28;20599;-35
2023/06/20 01:59:31;;;;;;;4.90;4.28;;;23.00;79.80;;;;;;5025610;28;20061;-34
2023/06/20 02:01:59;;;;;;;5.22;4.28;;;23.00;79.80;;;;;;5027188;28;20022;-35
2023/06/20 02:04:25;;;;;;;4.05;3.75;;;23.00;79.80;;;;;;5026636;28;20125;-33
2023/06/20 02:06:52;;;;;;;4.72;3.75;;;23.00;79.90;;;;;;5026539;28;20080;-34
2023/06/20 02:09:18;;;;;;;4.90;4.45;;;23.00;79.90;;;;;;5026623;28;20025;-34
2023/06/20 02:11:45;;;;;;;5.65;4.78;;;23.00;80.00;;;;;;5027383;28;20037;-34
2023/06/20 02:14:11;;;;;;;4.63;4.22;;;23.00;80.10;;;;;;5025880;28;20041;-34
2023/06/20 02:16:38;;;;;;;5.13;3.97;;;23.00;80.10;;;;;;5026260;28;20584;-34
2023/06/20 02:19:06;;;;;;;4.75;4.32;;;23.00;80.20;;;;;;5026250;28;20908;-34
2023/06/20 02:21:36;;;;;;;5.10;4.60;;;23.00;80.30;;;;;;5026620;28;20021;-40
2023/06/20 02:24:04;;;;;;;4.78;4.22;;;23.00;80.30;;;;;;5027150;28;20824;-34
2023/06/20 02:26:34;;;;;;;5.03;4.53;;;23.00;80.40;;;;;;5026111;28;20029;-35
2023/06/20 02:29:04;;;;;;;4.80;4.10;;;23.00;80.50;;;;;;5026922;28;20030;-34
2023/06/20 02:31:36;;;;;;;5.35;4.70;;;23.00;80.60;;;;;;5027077;28;20041;-34
2023/06/20 02:34:06;;;;;;;5.55;5.03;;;23.00;80.70;;;;;;5026674;28;20397;-34
2023/06/20 02:36:35;;;;;;;5.22;4.72;;;23.00;80.80;;;;;;5026003;28;20025;-33
2023/06/20 02:39:01;;;;;;;5.60;5.10;;;22.90;80.90;;;;;;5027072;28;20021;-32
2023/06/20 02:41:27;;;;;;;4.80;4.28;;;22.90;81.00;;;;;;5024379;28;20440;-33
2023/06/20 02:43:52;;;;;;;4.85;4.40;;;22.90;81.00;;;;;;5026748;28;20084;-34
2023/06/20 02:46:36;;;;;;;4.93;4.38;;;22.80;81.00;;;;;;5025710;28;20568;-34
2023/06/20 02:49:30;;;;;;;5.15;4.43;;;22.90;81.30;;;;;;5025748;28;20061;-33
2023/06/20 02:52:21;;;;;;;5.88;5.00;;;22.80;81.30;;;;;;5010757;28;20042;-33
2023/06/20 02:54:51;;;;;;;5.40;4.90;;;22.90;81.50;;;;;;5025447;28;20480;-33
2023/06/20 02:57:20;;;;;;;5.47;4.80;;;22.80;81.40;;;;;;5025393;28;20064;-32
2023/06/20 02:59:52;;;;;;;5.22;4.72;;;22.80;81.50;;;;;;5025265;28;20495;-34
2023/06/20 03:02:20;;;;;;;5.20;4.70;;;22.80;81.60;;;;;;5016843;28;20021;-33
2023/06/20 03:04:47;;;;;;;5.20;4.70;;;22.80;81.70;;;;;;5026536;28;20108;-34
2023/06/20 03:07:14;;;;;;;5.53;5.03;;;22.80;81.80;;;;;;5024863;28;20061;-35
2023/06/20 03:09:40;;;;;;;5.40;4.90;;;22.80;81.90;;;;;;5024526;28;20122;-34
2023/06/20 03:12:07;;;;;;;6.03;5.43;;;22.80;82.00;;;;;;5026109;28;20013;-34
2023/06/20 03:14:33;;;;;;;5.82;5.32;;;22.80;82.10;;;;;;5025999;28;20065;-34
2023/06/20 03:16:59;;;;;;;5.63;5.03;;;22.80;82.10;;;;;;5026041;28;20049;-35
2023/06/20 03:19:25;;;;;;;6.13;5.53;;;22.70;82.20;;;;;;5025663;28;20056;-33
2023/06/20 03:22:03;;;;;;;6.28;5.65;;;22.70;82.30;;;;;;5025222;28;20025;-33
2023/06/20 03:24:28;;;;;;;5.30;4.80;;;22.70;82.40;;;;;;5024805;28;20025;-34
2023/06/20 03:26:54;;;;;;;5.25;4.82;;;22.70;82.40;;;;;;5025858;28;20029;-34
2023/06/20 03:29:19;;;;;;;5.55;5.00;;;22.70;82.50;;;;;;5024839;28;20055;-33
2023/06/20 03:31:45;;;;;;;5.82;5.32;;;22.80;82.60;;;;;;5024032;28;20133;-33
2023/06/20 03:34:13;;;;;;;6.22;5.63;;;22.80;82.80;;;;;;5024568;28;20022;-35
2023/06/20 03:36:39;;;;;;;6.03;5.47;;;22.70;82.80;;;;;;5025214;28;20029;-33
2023/06/20 03:39:07;;;;;;;6.72;5.72;;;22.70;82.90;;;;;;5024850;28;20026;-33
2023/06/20 03:41:32;;;;;;;5.43;4.93;;;22.70;83.00;;;;;;5023894;28;20024;-34
2023/06/20 03:43:58;;;;;;;6.03;5.43;;;22.70;83.10;;;;;;5025012;28;20033;-33
2023/06/20 03:46:23;;;;;;;5.90;5.05;;;22.70;83.30;;;;;;5024624;28;20025;-34
2023/06/20 03:48:49;;;;;;;5.82;5.20;;;22.70;83.30;;;;;;5025339;28;20136;-33
2023/06/20 03:51:18;;;;;;;6.30;5.57;;;22.70;83.30;;;;;;5024444;28;20037;-32
2023/06/20 03:53:43;;;;;;;5.60;5.10;;;22.70;83.30;;;;;;5024609;28;20099;-32
2023/06/20 03:56:09;;;;;;;6.38;5.50;;;22.70;83.40;;;;;;5024884;28;20435;-32
2023/06/20 03:58:34;;;;;;;6.03;5.43;;;22.60;83.50;;;;;;5024261;28;20018;-33
2023/06/20 04:01:00;;;;;;;7.50;5.53;;;22.70;83.60;;;;;;5025695;28;20108;-33
2023/06/20 04:03:25;;;;;;;6.15;5.55;;;22.60;83.50;;;;;;5024132;28;20028;-33
2023/06/20 04:05:51;;;;;;;6.70;5.40;;;22.70;83.60;;;;;;5024175;28;20025;-34
2023/06/20 04:08:23;;;;;;;5.70;5.15;;;22.60;83.60;;;;;;5023696;28;20025;-34
2023/06/20 04:10:48;;;;;;;5.22;4.70;;;22.60;83.80;;;;;;5021879;28;20040;-33
2023/06/20 04:13:14;;;;;;;5.03;4.63;;;22.60;83.80;;;;;;5023541;28;20025;-33
2023/06/20 04:15:42;;;;;;;5.60;4.60;;;22.60;83.80;;;;;;5024544;28;20420;-33
2023/06/20 04:18:08;;;;;;;7.03;5.70;;;22.60;83.90;;;;;;5025695;28;20021;-33
2023/06/20 04:20:36;;;;;;;5.97;5.22;;;22.60;84.00;;;;;;5023140;28;20393;-34
2023/06/20 04:23:17;;;;;;;6.28;5.38;;;22.60;84.00;;;;;;5024731;28;20033;-33
2023/06/20 04:25:43;;;;;;;5.97;5.45;;;22.60;84.10;;;;;;5023712;28;20029;-35
2023/06/20 04:28:08;;;;;;;7.18;5.40;;;22.60;84.10;;;;;;5023549;28;20501;-34
2023/06/20 04:30:34;;;;;;;7.07;5.30;;;22.60;84.10;;;;;;5024158;28;20124;-34
2023/06/20 04:33:00;;;;;;;5.20;4.70;;;22.60;84.20;;;;;;5023920;28;20380;-34
2023/06/20 04:35:25;;;;;;;6.55;5.30;;;22.70;84.20;;;;;;5023945;28;20048;-33
2023/06/20 04:37:53;;;;;;;6.25;5.43;;;22.70;84.70;;;;;;5024009;28;20029;-33
2023/06/20 04:40:19;;;;;;;5.97;5.38;;;22.60;84.30;;;;;;5021783;28;20022;-32
2023/06/20 04:42:45;;;;;;;5.72;5.13;;;22.60;84.40;;;;;;5024052;28;20495;-32
2023/06/20 04:45:11;;;;;;;7.65;4.93;;;22.70;84.50;;;;;;5023992;28;20043;-33
2023/06/20 04:47:41;;;;;;;5.57;4.97;;;22.60;84.50;;;;;;5023463;28;20033;-33
2023/06/20 04:50:09;;;;;;;6.25;5.00;;;22.70;84.60;;;;;;5024191;28;20544;-32
2023/06/20 04:52:35;;;;;;;6.38;5.15;;;22.70;84.70;;;;;;5023256;28;20492;-33
2023/06/20 04:55:03;;;;;;;6.07;5.43;;;22.70;84.70;;;;;;5023523;28;20124;-33
2023/06/20 04:57:30;;;;;;;5.55;5.05;;;22.70;84.80;;;;;;5023643;28;20028;-35
2023/06/20 04:59:56;;;;;;;6.20;5.60;;;22.70;84.80;;;;;;5024162;28;20184;-34
2023/06/20 05:02:22;;;;;;;6.53;5.85;;;22.70;84.80;;;;;;5022328;28;20112;-32
2023/06/20 05:04:48;;;;;;;7.35;6.40;;;22.70;84.80;;;;;;5024291;28;20037;-34
2023/06/20 05:07:16;;;;;;;8.45;6.32;;;22.80;84.90;;;;;;5023067;28;20029;-34
2023/06/20 05:09:42;;;;;;;6.95;6.25;;;22.80;84.90;;;;;;5023367;28;20038;-34
2023/06/20 05:12:07;;;;;;;6.55;5.70;;;22.80;84.90;;;;;;5024196;28;20388;-34
2023/06/20 05:14:36;;;;;;;6.65;5.65;;;22.80;84.90;;;;;;5023274;28;20528;-34
2023/06/20 05:17:07;;;;;;;7.22;6.07;;;22.90;85.00;;;;;;5023356;28;20112;-34
2023/06/20 05:19:33;;;;;;;6.65;5.80;;;22.90;85.00;;;;;;5023720;28;20032;-34
2023/06/20 05:22:02;;;;;;;6.95;5.93;;;22.90;84.90;;;;;;5024272;28;20439;-33
2023/06/20 05:24:27;;;;;;;7.07;6.38;;;23.00;85.00;;;;;;5022761;28;20053;-34
2023/06/20 05:26:53;;;;;;;6.85;6.15;;;23.00;85.00;;;;;;5024012;28;20068;-33
2023/06/20 05:29:19;;;;;;;6.82;6.20;;;23.00;85.00;;;;;;5022789;28;20052;-34
2023/06/20 05:31:47;;;;;;;7.15;6.45;;;23.00;85.10;;;;;;5023554;28;20094;-33
2023/06/20 05:34:12;;;;;;;6.50;5.82;;;23.00;85.00;;;;;;5024057;28;20109;-33
2023/06/20 05:36:38;;;;;;;7.03;6.43;;;23.00;85.10;;;;;;5022751;28;20117;-34
2023/06/20 05:39:04;;;;;;;7.10;6.35;;;23.10;85.20;;;;;;5023800;28;20034;-34
2023/06/20 05:41:29;;;;;;;7.47;6.70;;;23.10;85.30;;;;;;5023192;28;20469;-34
2023/06/20 05:43:55;;;;;;;7.70;6.28;;;23.10;85.40;;;;;;5023060;28;20152;-44
2023/06/20 05:46:20;;;;;;;6.80;6.20;;;23.20;85.40;;;;;;5024065;28;20033;-33
2023/06/20 05:48:48;;;;;;;8.18;6.30;;;23.20;85.40;;;;;;5023916;28;20029;-33
2023/06/20 05:51:14;;;;;;;6.53;5.93;;;23.20;85.40;;;;;;5023414;28;20038;-33
2023/06/20 05:53:43;;;;;;;7.18;6.32;;;23.20;85.30;;;;;;5023335;28;20660;-33
2023/06/20 05:56:09;;;;;;;7.63;6.25;;;23.30;85.40;;;;;;5028225;28;20044;-32
2023/06/20 05:58:36;;;;;;;6.78;6.15;;;23.30;85.40;;;;;;5026614;28;20568;-34
2023/06/20 06:01:03;;;;;;;8.00;5.88;;;23.40;85.40;;;;;;5027650;28;20046;-34
2023/06/20 06:03:30;;;;;;;6.60;5.95;;;23.40;85.40;;;;;;5027115;28;20057;-33
2023/06/20 06:05:55;;;;;;;6.78;5.95;;;23.40;85.50;;;;;;5026630;28;20301;-34
2023/06/20 06:08:21;;;;;;;7.97;6.47;;;23.50;85.50;;;;;;5026345;28;20499;-33
2023/06/20 06:10:49;;;;;;;6.88;6.13;;;23.50;85.60;;;;;;5025848;28;20431;-33
2023/06/20 06:13:15;;;;;;;6.43;5.82;;;23.50;85.70;;;;;;5027125;28;20110;-33
2023/06/20 06:15:40;;;;;;;7.47;6.13;;;23.60;86.00;;;;;;5027142;28;20112;-34
2023/06/20 06:18:09;;;;;;;6.85;6.25;;;23.60;85.80;;;;;;5026129;28;20017;-33
2023/06/20 06:20:34;;;;;;;5.97;5.47;;;23.60;85.90;;;;;;5025924;28;20065;-34
2023/06/20 06:23:00;;;;;;;6.57;5.72;;;23.60;85.90;;;;;;5026868;28;20057;-33
2023/06/20 06:25:26;;;;;;;7.00;6.15;;;23.60;86.00;;;;;;5025134;28;20025;-34
2023/06/20 06:27:52;;;;;;;6.93;6.22;;;23.70;86.20;;;;;;5026246;28;20029;-33
2023/06/20 06:30:20;;;;;;;7.15;6.45;;;23.70;86.20;;;;;;5025534;28;20579;-34
2023/06/20 06:32:49;;;;;;;7.05;6.43;;;23.70;86.30;;;;;;5026506;28;20032;-35
2023/06/20 06:35:16;;;;;;;7.05;6.20;;;23.70;86.20;;;;;;5026429;28;20083;-34
2023/06/20 06:37:42;;;;;;;7.70;6.90;;;23.80;86.40;;;;;;5026480;28;20028;-34
2023/06/20 06:40:11;;;;;;;7.93;6.55;;;23.90;86.40;;;;;;5025447;28;20029;-34
2023/06/20 06:42:37;;;;;;;6.50;5.90;;;23.90;86.40;;;;;;5025298;28;20033;-34
2023/06/20 06:45:03;;;;;;;7.60;6.90;;;24.00;86.40;;;;;;5026162;28;20021;-33
2023/06/20 06:47:29;;;;;;;7.38;6.68;;;24.10;86.40;;;;;;5023885;28;20029;-33
2023/06/20 06:49:57;;;;;;;7.93;6.22;;;24.10;86.40;;;;;;5026552;28;20040;-33
2023/06/20 06:52:23;;;;;;;7.15;6.35;;;24.20;86.40;;;;;;5025029;28;20567;-35
2023/06/20 06:54:48;;;;;;;6.40;5.68;;;24.30;86.30;;;;;;5025333;28;20073;-34
2023/06/20 06:57:14;;;;;;;6.38;5.78;;;24.40;86.30;;;;;;5026119;28;20030;-33
2023/06/20 06:59:39;;;;;;;7.20;6.50;;;24.40;86.20;;;;;;5025953;28;20049;-34
2023/06/20 07:02:05;;;;;;;7.18;6.55;;;24.50;86.20;;;;;;5024866;28;20556;-34
2023/06/20 07:04:32;;;;;;;6.82;6.22;;;24.60;86.10;;;;;;5026101;28;20378;-34
2023/06/20 07:06:57;;;;;;;6.50;5.90;;;24.80;86.20;;;;;;5026556;28;20025;-34
2023/06/20 07:09:23;;;;;;;7.30;6.60;;;24.90;86.10;;;;;;5024423;28;20224;-34
2023/06/20 07:11:54;;;;;;;6.82;6.22;;;25.10;86.00;;;;;;5026405;28;20025;-34
2023/06/20 07:14:23;;;;;;;6.55;5.88;;;25.20;85.80;;;;;;5024950;28;20018;-34
2023/06/20 07:16:48;;;;;;;7.03;6.43;;;25.20;85.70;;;;;;5024892;28;20029;-33
2023/06/20 07:19:14;;;;;;;6.65;6.00;;;25.30;85.70;;;;;;5025839;28;20025;-34
2023/06/20 07:21:39;;;;;;;7.43;6.43;;;25.40;85.80;;;;;;5024559;28;20063;-33
2023/06/20 07:24:05;;;;;;;6.60;6.00;;;25.50;85.80;;;;;;5025644;28;20064;-34
2023/06/20 07:26:31;;;;;;;6.93;6.20;;;25.50;85.70;;;;;;5023417;28;20121;-34
2023/06/20 07:28:56;;;;;;;6.80;6.20;;;25.60;85.70;;;;;;5024876;28;20021;-33
2023/06/20 07:31:22;;;;;;;6.45;5.93;;;25.70;85.70;;;;;;5024756;28;20040;-34
2023/06/20 07:33:47;;;;;;;6.32;5.75;;;25.80;85.50;;;;;;5026223;28;20369;-34
2023/06/20 07:36:13;;;;;;;7.00;6.30;;;25.90;85.30;;;;;;5024506;28;20173;-34
2023/06/20 07:38:39;;;;;;;6.43;5.82;;;26.00;85.30;;;;;;5025274;28;20410;-33
2023/06/20 07:41:04;;;;;;;7.63;6.45;;;26.10;85.20;;;;;;5025281;28;20049;-38
2023/06/20 07:43:30;;;;;;;5.90;5.45;;;26.10;85.20;;;;;;5024897;28;20025;-33
2023/06/20 07:45:56;;;;;;;6.57;6.00;;;26.10;85.10;;;;;;5025539;28;20118;-33
2023/06/20 07:48:27;;;;;;;7.03;6.40;;;26.10;85.20;;;;;;5024714;28;20063;-33
2023/06/20 07:50:53;;;;;;;7.50;6.40;;;26.10;85.30;;;;;;5024650;28;21643;-32
2023/06/20 07:53:18;;;;;;;7.57;6.88;;;26.10;85.20;;;;;;5024800;28;20089;-33
2023/06/20 07:55:44;;;;;;;6.80;6.10;;;26.20;85.20;;;;;;5024986;28;20064;-33
2023/06/20 07:58:19;;;;;;;7.25;6.43;;;26.20;85.10;;;;;;5024129;28;20079;-32
2023/06/20 08:00:46;;;;;;;6.68;5.55;;;26.20;85.20;;;;;;5025420;28;20022;-35
2023/06/20 08:03:12;;;;;;;6.00;5.40;;;26.10;85.40;;;;;;5024919;28;20485;-34
2023/06/20 08:05:38;;;;;;;5.65;5.07;;;26.10;85.50;;;;;;5024180;28;20029;-33
2023/06/20 08:08:03;;;;;;;7.30;5.63;;;26.10;85.40;;;;;;5025309;28;20582;-32
2023/06/20 08:10:29;;;;;;;5.25;4.80;;;26.20;85.30;;;;;;5024502;28;20080;-32
2023/06/20 08:13:01;;;;;;;5.20;4.80;;;26.30;85.10;;;;;;5024298;28;20431;-38
2023/06/20 08:15:26;;;;;;;5.40;4.90;;;26.40;84.90;;;;;;5024570;28;20116;-35
2023/06/20 08:17:52;;;;;;;5.55;5.05;;;26.40;84.80;;;;;;5025000;28;20047;-33
2023/06/20 08:20:20;;;;;;;4.95;4.38;;;26.40;84.80;;;;;;5023499;28;20037;-34
2023/06/20 08:22:49;;;;;;;5.18;4.72;;;26.40;84.80;;;;;;5024281;28;20418;-34
2023/06/20 08:25:14;;;;;;;5.03;4.63;;;26.40;85.00;;;;;;5023541;28;20060;-35
2023/06/20 08:27:40;;;;;;;5.43;4.93;;;26.30;85.10;;;;;;5023726;28;20030;-34
2023/06/20 08:30:09;;;;;;;5.63;5.13;;;26.30;85.20;;;;;;5024456;28;20041;-34
2023/06/20 08:32:39;;;;;;;6.32;5.80;;;26.20;85.50;;;;;;5023332;28;20023;-33
2023/06/20 08:35:09;;;;;;;5.55;4.97;;;26.20;85.70;;;;;;5020112;28;20036;-35
2023/06/20 08:37:36;;;;;;;4.60;4.20;;;26.20;85.90;;;;;;5024119;28;20053;-35
2023/06/20 08:40:03;;;;;;;5.32;4.00;;;26.20;85.80;;;;;;5023483;28;20168;-33
2023/06/20 08:42:32;;;;;;;4.38;3.97;;;26.20;85.80;;;;;;5023663;28;20025;-33
2023/06/20 08:44:58;;;;;;;4.78;4.35;;;26.20;85.90;;;;;;5020929;28;20030;-33
2023/06/20 08:47:24;;;;;;;9.88;4.78;;;26.20;86.10;;;;;;5022008;28;20079;-34
2023/06/20 08:49:56;;;;;;;6.47;4.07;;;26.30;86.40;;;;;;5023561;28;20041;-34
2023/06/20 08:52:29;;;;;;;4.32;3.90;;;26.30;86.20;;;;;;5023246;28;20033;-35
2023/06/20 08:54:58;;;;;;;4.82;4.28;;;26.30;86.00;;;;;;5023320;28;20164;-34
2023/06/20 08:57:24;;;;;;;5.20;3.63;;;26.40;86.10;;;;;;5023959;28;20592;-34
2023/06/20 08:59:50;;;;;;;4.82;3.90;;;26.50;86.10;;;;;;5023926;28;20108;-34
2023/06/20 09:02:16;;;;;;;4.10;3.80;;;26.50;85.90;;;;;;5022604;28;20428;-33
2023/06/20 09:04:45;;;;;;;3.97;3.67;;;26.60;85.80;;;;;;5023826;28;20428;-35
2023/06/20 09:07:21;;;;;;;4.32;3.30;;;26.60;85.60;;;;;;5021772;28;20117;-35
2023/06/20 09:09:47;;;;;;;3.15;2.95;;;26.70;85.40;;;;;;5024889;28;20045;-34
2023/06/20 09:12:14;;;;;;;3.17;2.97;;;26.70;85.10;;;;;;5023357;28;20025;-33
2023/06/20 09:14:40;;;;;;;3.78;3.47;;;26.80;84.90;;;;;;5023687;28;20497;-34
2023/06/20 09:17:08;;;;;;;3.50;3.20;;;26.80;84.80;;;;;;5024077;28;20033;-33
2023/06/20 09:19:49;;;;;;;3.60;3.30;;;26.80;84.60;;;;;;5023239;28;20079;-33
2023/06/20 09:22:18;;;;;;;4.53;4.13;;;26.90;84.50;;;;;;5023358;28;20025;-33
2023/06/20 09:24:48;;;;;;;4.03;3.72;;;26.90;84.40;;;;;;5023128;28;20033;-33
2023/06/20 09:27:14;;;;;;;4.45;4.05;;;27.00;84.40;;;;;;5023872;28;20033;-34
2023/06/20 09:29:52;;;;;;;4.50;4.10;;;27.00;84.20;;;;;;5025060;28;20465;-34
2023/06/20 09:32:20;;;;;;;4.28;3.88;;;27.00;84.40;;;;;;5027530;28;20057;-33
2023/06/20 09:34:46;;;;;;;4.38;3.97;;;27.00;84.50;;;;;;5034535;28;20758;-34
2023/06/20 09:37:14;;;;;;;4.85;4.35;;;27.10;84.60;;;;;;5033866;28;20033;-33
2023/06/20 09:39:39;;;;;;;4.78;4.28;;;27.20;84.50;;;;;;5027375;28;20150;-34
2023/06/20 09:42:11;;;;;;;4.55;4.15;;;27.20;84.20;;;;;;5026783;28;20029;-32
2023/06/20 09:44:37;;;;;;;3.85;3.53;;;27.20;84.30;;;;;;5026485;28;20109;-33
2023/06/20 09:47:03;;;;;;;4.30;3.90;;;27.30;84.40;;;;;;5027806;28;20408;-33
2023/06/20 09:49:30;;;;;;;4.30;3.90;;;27.30;84.50;;;;;;5026516;28;20026;-34
2023/06/20 09:52:06;;;;;;;5.32;3.47;;;27.30;84.60;;;;;;5027317;28;20028;-33
2023/06/20 09:54:48;;;;;;;4.25;3.95;;;27.30;84.60;;;;;;5027561;28;20041;-33
2023/06/20 09:57:20;;;;;;;4.40;4.00;;;27.30;84.70;;;;;;5025821;28;20029;-32
2023/06/20 09:59:49;;;;;;;4.40;4.00;;;27.30;84.70;;;;;;5030325;28;20037;-33
2023/06/20 10:02:17;;;;;;;3.90;3.58;;;27.30;84.70;;;;;;5027179;28;20025;-32
2023/06/20 10:04:43;;;;;;;3.67;3.38;;;27.40;84.70;;;;;;5026389;28;20038;-33
2023/06/20 10:07:14;;;;;;;3.55;3.22;;;27.50;84.60;;;;;;5026065;28;20026;-33
2023/06/20 10:09:44;;;;;;;3.83;3.42;;;27.50;84.30;;;;;;5026717;28;20123;-33
2023/06/20 10:12:11;;;;;;;4.28;3.88;;;27.60;84.10;;;;;;5025887;28;20095;-33
2023/06/20 10:14:37;;;;;;;3.72;3.40;;;27.80;83.80;;;;;;5026209;28;20026;-33
2023/06/20 10:17:11;;;;;;;4.43;4.00;;;28.00;83.70;;;;;;5027142;28;20037;-34
2023/06/20 10:19:50;;;;;;;4.00;3.70;;;28.10;83.30;;;;;;5025195;28;20045;-34
2023/06/20 10:22:36;;;;;;;3.60;3.30;;;28.20;83.70;;;;;;5026429;28;20053;-33
2023/06/20 10:25:03;;;;;;;3.80;3.50;;;28.20;82.80;;;;;;5025906;28;20044;-34
2023/06/20 10:27:29;;;;;;;3.83;3.53;;;28.20;82.80;;;;;;5024168;28;20025;-34
2023/06/20 10:29:54;;;;;;;2.80;2.60;;;28.20;82.80;;;;;;5024801;28;20036;-34
2023/06/20 10:32:22;;;;;;;3.45;3.15;;;28.20;82.80;;;;;;5018845;28;20432;-33
2023/06/20 10:34:50;;;;;;;2.90;2.70;;;28.20;83.00;;;;;;5022716;28;20017;-33
2023/06/20 10:37:28;;;;;;;2.97;2.78;;;28.20;83.00;;;;;;5026609;28;20065;-32
2023/06/20 10:39:57;;;;;;;4.30;3.40;;;28.20;82.90;;;;;;5022329;28;20040;-33
2023/06/20 10:42:46;;;;;;;3.28;2.78;;;28.20;82.70;;;;;;5026775;28;20029;-34
2023/06/20 10:45:23;;;;;;;3.03;2.83;;;28.30;82.60;;;;;;5019547;28;20029;-32
2023/06/20 10:47:49;;;;;;;3.20;3.00;;;28.40;82.50;;;;;;5022311;28;20071;-32
2023/06/20 10:50:15;;;;;;;2.90;2.70;;;28.50;82.20;;;;;;5025734;28;20370;-34
2023/06/20 10:52:41;;;;;;;2.80;2.60;;;28.60;82.10;;;;;;5024025;28;20136;-34
2023/06/20 10:55:22;;;;;;;3.08;2.78;;;28.60;82.10;;;;;;5026622;28;20193;-34
2023/06/20 10:57:49;;;;;;;2.80;2.60;;;28.70;82.10;;;;;;5025714;28;20079;-34
2023/06/20 11:00:18;;;;;;;2.78;2.58;;;28.70;81.80;;;;;;5024476;28;20507;-33
2023/06/20 11:02:46;;;;;;;2.40;2.20;;;28.70;81.90;;;;;;5026237;28;20132;-34
2023/06/20 11:05:12;;;;;;;2.28;2.13;;;28.70;82.10;;;;;;5024865;28;20081;-34
2023/06/20 11:08:10;;;;;;;2.45;2.25;;;28.80;81.80;;;;;;5022992;28;20473;-34
2023/06/20 11:10:37;;;;;;;2.70;2.38;;;28.90;81.30;;;;;;5014229;28;20041;-34
2023/06/20 11:13:06;;;;;;;2.35;2.15;;;29.00;81.00;;;;;;5024524;28;20025;-34
2023/06/20 11:15:39;;;;;;;2.60;2.40;;;29.10;80.90;;;;;;5023372;28;20059;-35
2023/06/20 11:18:08;;;;;;;2.33;2.15;;;29.10;80.70;;;;;;5023790;28;20033;-33
2023/06/20 11:20:36;;;;;;;2.40;2.20;;;29.10;80.40;;;;;;5014940;28;20037;-35
2023/06/20 11:23:04;;;;;;;2.42;2.22;;;29.20;80.30;;;;;;5025264;28;20057;-33
2023/06/20 11:25:31;;;;;;;1.95;1.85;;;29.30;79.90;;;;;;5025954;28;20032;-34
2023/06/20 11:28:23;;;;;;;2.30;2.10;;;29.30;79.80;;;;;;5025723;28;20037;-33
2023/06/20 11:30:50;;;;;;;2.55;2.35;;;29.30;79.90;;;;;;5022918;28;20042;-34
2023/06/20 11:33:18;;;;;;;2.08;1.88;;;29.30;80.00;;;;;;5025650;28;20053;-35
2023/06/20 11:35:52;;;;;;;2.10;2.00;;;29.40;79.90;;;;;;5025068;28;20013;-35
2023/06/20 11:38:25;;;;;;;1.95;1.85;;;29.30;79.70;;;;;;5025652;28;20030;-35
2023/06/20 11:41:07;;;;;;;2.20;2.00;;;29.20;79.60;;;;;;5022520;28;20093;-36
2023/06/20 11:43:42;;;;;;;;;;;29.20;79.50;;;;;;5025044;28;20022;-35
2023/06/20 11:46:12;;;;;;;2.67;2.42;;;29.10;79.60;;;;;;5025038;28;19920;-34
2023/06/20 11:48:46;;;;;;;1.98;1.88;;;29.10;79.60;;;;;;5024972;28;20108;-35
2023/06/20 11:51:12;;;;;;;1.88;1.77;;;29.10;80.40;;;;;;5020890;28;20038;-35
2023/06/20 11:53:41;;;;;;;1.70;1.60;;;29.10;79.80;;;;;;5024403;28;20053;-34
2023/06/20 11:56:08;;;;;;;2.15;1.98;;;29.10;79.90;;;;;;5024565;28;20029;-33
2023/06/20 11:58:49;;;;;;;1.90;1.80;;;29.10;79.80;;;;;;5025539;28;20064;-34
2023/06/20 12:01:20;;;;;;;3.10;1.70;;;29.10;79.60;;;;;;5024790;28;20506;-34
2023/06/20 12:04:00;;;;;;;1.83;1.73;;;29.10;79.60;;;;;;5024257;28;20565;-35
2023/06/20 12:06:28;;;;;;;2.30;2.10;;;29.20;79.60;;;;;;5024110;28;20108;-35
2023/06/20 12:09:06;;;;;;;1.83;1.70;;;29.20;79.40;;;;;;5024432;28;20031;-34
2023/06/20 12:11:33;;;;;;;2.17;2.00;;;29.30;79.30;;;;;;5023652;28;20052;-33
2023/06/20 12:13:59;;;;;;;2.58;2.00;;;29.30;79.20;;;;;;5024758;28;20408;-35
2023/06/20 12:16:24;;;;;;;2.03;1.92;;;29.40;79.00;;;;;;5023929;28;20033;-34
2023/06/20 12:18:51;;;;;;;2.55;1.80;;;29.50;78.90;;;;;;5024793;28;20381;-33
2023/06/20 12:21:17;;;;;;;1.75;1.65;;;29.60;78.90;;;;;;5025029;28;20041;-35
2023/06/20 12:23:43;;;;;;;1.70;1.60;;;29.60;78.70;;;;;;5024752;28;20624;-35
2023/06/20 12:26:13;;;;;;;1.90;1.80;;;29.60;78.50;;;;;;5024036;28;20022;-34
2023/06/20 12:28:40;;;;;;;3.20;2.00;;;29.60;78.40;;;;;;5024351;28;20026;-34
2023/06/20 12:31:09;;;;;;;1.73;1.63;;;29.70;78.30;;;;;;5024331;28;20160;-35
2023/06/20 12:33:34;;;;;;;1.85;1.70;;;29.70;78.30;;;;;;5023918;28;20029;-34
2023/06/20 12:36:04;;;;;;;1.88;1.70;;;29.70;78.00;;;;;;5024652;28;20025;-34
2023/06/20 12:38:30;;;;;;;2.00;1.80;;;29.80;77.90;;;;;;5023654;28;20025;-34
2023/06/20 12:40:57;;;;;;;2.33;1.80;;;29.90;77.80;;;;;;5024034;28;20033;-34
2023/06/20 12:43:23;;;;;;;2.05;1.95;;;29.90;77.60;;;;;;5024196;28;20029;-34
2023/06/20 12:45:49;;;;;;;1.80;1.70;;;29.90;77.50;;;;;;5023367;28;20025;-35
2023/06/20 12:48:14;;;;;;;2.17;1.98;;;29.90;77.40;;;;;;5024005;28;20583;-34
2023/06/20 12:50:40;;;;;;;1.80;1.70;;;30.00;77.40;;;;;;5022325;28;20061;-35
2023/06/20 12:53:09;;;;;;;2.00;1.80;;;30.00;77.20;;;;;;5022477;28;20044;-34
2023/06/20 12:55:34;;;;;;;1.63;1.52;;;30.00;77.30;;;;;;5024166;28;20770;-33